TXKF/BDA METAR and TAF weather

Enter ICAO airport designator
Station Type Date Time Source
TXKF METAR 2021/01/20 22:55 UTC NOAA

TXKF 202255Z 23024G34KT 9999 SCT040 BKN080 OVC170 19/12 Q1012


Station Type Date Time Source
TXKF Decoded METAR 2021/01/20 22:55 UTC NOAA

Bermuda, Bermuda (TXKF) 32-22N 064-41W
Jan 20, 2021 - 05:55 PM EST / 2021.01.20 2255 UTC
Wind: from the SW (230 degrees) at 28 MPH (24 KT) gusting to 39 MPH (34 KT):0
Visibility: greater than 7 mile(s):0
Sky conditions: overcast
Temperature: 66 F (19 C)
Dew Point: 53 F (12 C)
Relative Humidity: 63%
Pressure (altimeter): 29.88 in. Hg (1012 hPa)
ob: TXKF 202255Z 23024G34KT 9999 SCT040 BKN080 OVC170 19/12 Q1012
cycle: 23

Station Type Date Time Source
TXKF TAF 2021/01/20 18:51 UTC NOAA

TAF TXKF 201744Z 2018/2118 24018KT 9999 FEW035 SCT060
BECMG 2020/2023 26028KT VCSH FEW012 BKN030 PROB40
TEMPO 2022/2103 27032G42KT 2400 SHRA BR BKN014 PROB30
TEMPO 2103/2106 27026G36KT 4000 SHRA BKN025
BECMG 2105/2108 31023KT SCT030 BKN060
BECMG 2114/2117 30013KT

Example: see airport list